Time;durP1;ratioP1;P1;durP2;ratioP2;P2;SDS_P1;SDS_P2;PMS_P1;PMS_P2;Temp;Humidity;BMP_temperature;BMP_pressure;BME280_temperature;BME280_humidity;BME280_pressure;Samples;Min_cycle;Max_cycle;Signal;HPM_P1;HPM_P2
2022/10/29 00:00:59;;;;;;;24.95;7.93;;;;;;;12.57;52.66;100880.53;3144169;28;20630;-65
2022/10/29 00:02:30;;;;;;;20.30;8.38;;;;;;;12.55;52.37;100874.53;3137534;28;20060;-65
2022/10/29 00:04:02;;;;;;;16.73;7.78;;;;;;;12.52;52.32;100876.34;3134432;28;20053;-65
2022/10/29 00:05:33;;;;;;;16.30;7.88;;;;;;;12.49;52.67;100878.22;3144156;28;20056;-64
2022/10/29 00:07:05;;;;;;;25.08;9.15;;;;;;;12.50;52.88;100882.50;3141824;28;20057;-64
2022/10/29 00:08:38;;;;;;;25.60;9.13;;;;;;;12.50;52.77;100879.91;3139232;28;20052;-64
2022/10/29 00:10:10;;;;;;;20.88;8.40;;;;;;;12.48;52.72;100876.47;3134741;28;20049;-65
2022/10/29 00:11:43;;;;;;;21.58;8.20;;;;;;;12.47;52.97;100888.69;3134360;28;20045;-65
2022/10/29 00:13:14;;;;;;;23.45;8.13;;;;;;;12.43;52.95;100883.66;3134433;28;20076;-66
2022/10/29 00:14:46;;;;;;;22.70;8.05;;;;;;;12.36;53.19;100882.16;3142632;28;20917;-66
2022/10/29 00:16:20;;;;;;;22.17;7.97;;;;;;;12.28;53.19;100890.28;3140088;28;20394;-66
2022/10/29 00:17:50;;;;;;;22.23;8.40;;;;;;;12.22;53.51;100880.03;3134622;28;20106;-66
2022/10/29 00:19:22;;;;;;;20.15;7.75;;;;;;;12.13;53.46;100880.34;3134302;28;20135;-64
2022/10/29 00:20:59;;;;;;;26.02;7.90;;;;;;;12.11;53.71;100883.00;3136243;28;20443;-65
2022/10/29 00:22:31;;;;;;;18.70;7.30;;;;;;;12.05;53.83;100885.81;3134472;28;20132;-65
2022/10/29 00:24:03;;;;;;;23.35;7.47;;;;;;;12.01;53.50;100882.47;3139357;28;20049;-64
2022/10/29 00:25:34;;;;;;;24.85;8.05;;;;;;;11.99;53.75;100884.28;3134373;28;20083;-64
2022/10/29 00:27:07;;;;;;;25.88;7.85;;;;;;;11.98;53.53;100884.31;3134134;28;20136;-64
2022/10/29 00:28:40;;;;;;;16.65;7.43;;;;;;;11.98;53.92;100887.81;3134221;28;20064;-65
2022/10/29 00:30:13;;;;;;;19.38;7.57;;;;;;;11.96;53.58;100878.31;3134215;28;20078;-64
2022/10/29 00:31:45;;;;;;;25.27;8.07;;;;;;;11.96;53.76;100878.31;3133984;28;20434;-65
2022/10/29 00:33:17;;;;;;;23.95;7.93;;;;;;;11.92;53.91;100874.97;3137679;28;20055;-65
2022/10/29 00:34:48;;;;;;;19.33;7.82;;;;;;;11.88;53.71;100873.34;3134094;28;20085;-65
2022/10/29 00:36:22;;;;;;;23.33;7.55;;;;;;;11.86;53.80;100872.56;3134064;28;20072;-65
2022/10/29 00:37:52;;;;;;;19.38;7.47;;;;;;;11.84;53.73;100869.09;3134226;28;20144;-65
2022/10/29 00:39:24;;;;;;;20.20;8.07;;;;;;;11.81;53.92;100874.44;3144436;28;20067;-65
2022/10/29 00:40:55;;;;;;;23.70;7.97;;;;;;;11.80;54.21;100862.25;3134366;28;20045;-65
2022/10/29 00:42:28;;;;;;;20.88;6.90;;;;;;;11.79;54.27;100868.41;3134135;28;20110;-65
2022/10/29 00:44:34;;;;;;;19.80;7.55;;;;;;;11.76;53.76;100858.91;3134077;28;20053;-64
2022/10/29 00:46:09;;;;;;;18.67;7.55;;;;;;;11.70;54.03;100851.28;3119962;28;20140;-65
2022/10/29 00:47:41;;;;;;;24.77;7.38;;;;;;;11.75;54.07;100861.56;3123585;28;20045;-64
2022/10/29 00:49:13;;;;;;;19.83;7.20;;;;;;;11.75;54.26;100856.38;3134296;28;20456;-65
2022/10/29 00:50:47;;;;;;;21.05;8.35;;;;;;;11.65;54.55;100844.50;3133748;28;20080;-65
2022/10/29 00:52:21;;;;;;;19.77;7.68;;;;;;;11.72;54.62;100859.91;3133869;28;20048;-64
2022/10/29 00:53:54;;;;;;;14.27;6.45;;;;;;;11.72;54.55;100864.28;3138545;28;20052;-65
2022/10/29 00:55:26;;;;;;;;;;;;;;;11.65;54.19;100854.94;3144413;28;20424;-64
2022/10/29 00:57:02;;;;;;;29.88;7.25;;;;;;;11.60;54.68;100847.28;3147128;28;19986;-64
2022/10/29 00:58:35;;;;;;;18.58;7.13;;;;;;;11.65;54.66;100849.72;3134070;28;20446;-64
2022/10/29 01:00:07;;;;;;;;;;;;;;;11.63;54.21;100855.00;3134373;28;20051;-65
2022/10/29 01:01:38;;;;;;;23.70;7.55;;;;;;;11.59;54.54;100849.03;3143720;28;20380;-65
2022/10/29 01:03:10;;;;;;;16.55;7.22;;;;;;;11.64;54.68;100855.84;3133734;28;20049;-65
2022/10/29 01:04:43;;;;;;;15.95;7.38;;;;;;;11.63;54.46;100847.19;3133862;28;20068;-64
2022/10/29 01:06:15;;;;;;;15.68;7.15;;;;;;;11.66;54.41;100856.66;3133858;28;20234;-65
2022/10/29 01:07:47;;;;;;;22.63;7.60;;;;;;;11.65;54.61;100847.97;3135277;28;20056;-65
2022/10/29 01:09:18;;;;;;;22.60;8.02;;;;;;;11.67;54.74;100850.53;3142145;28;20044;-64
2022/10/29 01:11:00;;;;;;;20.23;8.65;;;;;;;11.69;54.64;100851.34;3138274;28;20321;-64
2022/10/29 01:12:48;;;;;;;25.85;7.28;;;;;;;11.68;54.57;100853.06;3133750;28;20064;-65
2022/10/29 01:14:29;;;;;;;18.25;7.45;;;;;;;11.66;54.60;100843.63;3138416;28;20063;-64
2022/10/29 01:16:10;;;;;;;19.92;6.97;;;;;;;11.67;55.00;100847.94;3141652;28;20053;-64
2022/10/29 01:17:54;;;;;;;15.90;7.32;;;;;;;11.66;54.94;100836.63;3133700;28;20136;-64
2022/10/29 01:19:55;;;;;;;23.70;8.13;;;;;;;11.66;54.77;100841.00;3133545;28;20510;-65
2022/10/29 01:21:41;;;;;;;24.40;7.80;;;;;;;11.66;54.89;100847.06;3133478;28;20115;-64
2022/10/29 01:23:36;;;;;;;18.08;7.10;;;;;;;11.67;54.90;100842.72;3133638;28;20052;-65
2022/10/29 01:25:31;;;;;;;16.33;7.13;;;;;;;11.67;54.82;100840.09;3133860;28;20053;-64
2022/10/29 01:27:33;;;;;;;25.10;8.02;;;;;;;11.65;54.78;100836.69;3133572;28;20049;-65
2022/10/29 01:29:19;;;;;;;21.58;7.20;;;;;;;11.63;55.13;100841.97;3133571;28;20057;-65
2022/10/29 01:31:24;;;;;;;27.17;7.82;;;;;;;11.63;55.08;100831.53;3133502;28;20079;-64
2022/10/29 01:33:05;;;;;;;21.23;7.70;;;;;;;11.61;55.13;100834.16;3128865;28;20468;-65
2022/10/29 01:34:43;;;;;;;19.63;8.10;;;;;;;11.63;55.43;100830.69;3133074;28;20044;-65
2022/10/29 01:36:23;;;;;;;16.75;7.93;;;;;;;11.59;55.34;100822.94;3133232;28;20044;-64
2022/10/29 01:38:06;;;;;;;19.75;7.68;;;;;;;11.61;55.19;100831.56;3133144;28;20052;-65
2022/10/29 01:39:44;;;;;;;21.57;8.10;;;;;;;11.60;55.22;100835.09;3142855;28;20049;-64
2022/10/29 01:41:21;;;;;;;13.90;6.90;;;;;;;11.59;55.48;100827.28;3132959;28;20151;-65
2022/10/29 01:42:57;;;;;;;19.17;7.32;;;;;;;11.63;55.44;100828.91;3133439;28;20064;-65
2022/10/29 01:44:35;;;;;;;17.83;7.40;;;;;;;11.65;55.11;100831.47;3136952;28;20052;-65
2022/10/29 01:46:12;;;;;;;21.08;7.93;;;;;;;11.64;55.13;100827.16;3133367;28;20474;-65
2022/10/29 01:47:51;;;;;;;17.38;7.53;;;;;;;11.61;55.25;100822.88;3136916;28;20072;-64
2022/10/29 01:49:28;;;;;;;19.98;7.65;;;;;;;11.60;55.58;100824.66;3133344;28;20052;-64
2022/10/29 01:51:04;;;;;;;16.30;8.25;;;;;;;11.57;55.48;100822.16;3133207;28;20056;-64
2022/10/29 01:52:38;;;;;;;17.45;7.85;;;;;;;11.56;55.82;100816.97;3153367;28;20044;-64
2022/10/29 01:54:11;;;;;;;22.55;9.18;;;;;;;11.53;55.70;100820.53;3143513;28;20045;-65
2022/10/29 01:55:43;;;;;;;20.38;8.00;;;;;;;11.48;56.06;100821.59;3136383;28;20060;-65
2022/10/29 01:57:31;;;;;;;27.35;8.65;;;;;;;11.44;55.89;100819.97;3133201;28;20379;-65
2022/10/29 01:59:07;;;;;;;16.75;8.40;;;;;;;11.38;56.27;100818.41;3135247;28;20063;-65
2022/10/29 02:00:49;;;;;;;24.52;8.10;;;;;;;11.30;55.99;100815.22;3141577;28;20064;-64
2022/10/29 02:02:27;;;;;;;17.73;7.68;;;;;;;11.27;56.47;100821.38;3137639;28;20375;-65
2022/10/29 02:04:14;;;;;;;26.80;8.10;;;;;;;11.11;56.30;100801.91;3133165;28;20045;-65
2022/10/29 02:05:56;;;;;;;19.27;8.88;;;;;;;11.18;56.65;100820.78;3133154;28;20102;-65
2022/10/29 02:07:42;;;;;;;15.05;7.97;;;;;;;11.14;56.53;100810.47;3132762;28;20580;-65
2022/10/29 02:09:22;;;;;;;12.43;6.53;;;;;;;11.15;56.66;100816.53;3138844;28;20136;-65
2022/10/29 02:10:59;;;;;;;14.25;6.90;;;;;;;11.15;56.49;100820.00;3137202;28;20130;-65
2022/10/29 02:12:37;;;;;;;14.05;6.88;;;;;;;11.16;56.64;100813.03;3132968;28;20102;-65
2022/10/29 02:14:14;;;;;;;16.00;7.82;;;;;;;11.14;56.69;100815.69;3136035;28;20861;-65
2022/10/29 02:15:49;;;;;;;19.15;7.38;;;;;;;10.98;56.57;100792.78;3143917;28;20052;-64
2022/10/29 02:17:20;;;;;;;24.17;8.45;;;;;;;11.08;56.69;100812.41;3132799;28;20110;-65
2022/10/29 02:18:52;;;;;;;19.70;7.45;;;;;;;11.03;56.87;100809.97;3133018;28;20049;-64
2022/10/29 02:20:25;;;;;;;17.00;7.57;;;;;;;10.98;56.89;100809.25;3139174;28;20508;-65
2022/10/29 02:21:57;;;;;;;14.98;8.38;;;;;;;10.89;57.02;100807.78;3133796;28;20515;-65
2022/10/29 02:23:28;;;;;;;21.88;8.40;;;;;;;10.91;57.01;100807.72;3133133;28;20060;-65
2022/10/29 02:25:02;;;;;;;19.58;7.10;;;;;;;10.89;57.03;100820.81;3133117;28;20511;-65
2022/10/29 02:26:34;;;;;;;18.13;7.55;;;;;;;10.85;56.87;100811.34;3132951;28;20106;-65
2022/10/29 02:28:04;;;;;;;17.88;8.02;;;;;;;10.85;56.60;100808.75;3132921;28;20445;-65
2022/10/29 02:29:36;;;;;;;17.55;7.75;;;;;;;10.82;56.65;100808.00;3132999;28;20193;-65
2022/10/29 02:31:08;;;;;;;14.15;7.50;;;;;;;10.75;56.78;100791.69;3132971;28;20114;-65
2022/10/29 02:32:39;;;;;;;20.65;8.48;;;;;;;10.82;56.71;100814.06;3132547;28;20122;-65
2022/10/29 02:34:11;;;;;;;19.33;8.60;;;;;;;10.73;56.75;100795.25;3132508;28;20132;-64
2022/10/29 02:35:44;;;;;;;16.73;8.10;;;;;;;10.82;56.48;100808.84;3132723;28;20122;-65
2022/10/29 02:37:15;;;;;;;17.85;8.80;;;;;;;10.80;56.50;100808.06;3132572;28;20053;-64
2022/10/29 02:38:47;;;;;;;17.95;7.40;;;;;;;10.79;56.52;100800.28;3138921;28;20194;-64
2022/10/29 02:40:19;;;;;;;23.83;8.05;;;;;;;10.73;56.55;100798.69;3137651;28;20113;-64
2022/10/29 02:41:50;;;;;;;17.30;8.15;;;;;;;10.75;56.52;100807.34;3137908;28;20045;-64
2022/10/29 02:43:22;;;;;;;17.48;7.45;;;;;;;10.73;56.53;100806.50;3132566;28;20049;-64
2022/10/29 02:44:54;;;;;;;14.88;7.20;;;;;;;10.72;56.50;100809.19;3132481;28;20049;-65
2022/10/29 02:46:25;;;;;;;15.35;7.40;;;;;;;10.68;56.45;100813.63;3132712;28;20406;-64
2022/10/29 02:47:57;;;;;;;21.92;8.90;;;;;;;10.64;56.67;100810.25;3137606;28;20048;-64
2022/10/29 02:49:29;;;;;;;15.35;7.57;;;;;;;10.63;56.61;100811.16;3132487;28;20053;-65
2022/10/29 02:51:02;;;;;;;24.67;8.13;;;;;;;10.63;56.29;100808.56;3132704;28;20446;-64
2022/10/29 02:52:34;;;;;;;;;;;;;;;10.53;56.62;100807.13;3132191;28;20053;-64
2022/10/29 02:54:04;;;;;;;14.65;7.15;;;;;;;10.50;56.57;100816.75;3138854;28;19939;-64
2022/10/29 02:55:36;;;;;;;14.45;7.07;;;;;;;10.55;56.71;100812.28;3136489;28;20083;-64
2022/10/29 02:57:08;;;;;;;14.65;7.72;;;;;;;10.46;56.50;100795.16;3132328;28;20049;-64
2022/10/29 02:58:40;;;;;;;15.90;7.35;;;;;;;10.56;56.63;100817.44;3132696;28;20048;-64
2022/10/29 03:00:13;;;;;;;14.57;6.70;;;;;;;10.56;56.50;100819.19;3132446;28;20060;-65
2022/10/29 03:01:45;;;;;;;15.93;7.57;;;;;;;10.54;56.45;100823.59;3141665;28;20052;-65
2022/10/29 03:03:16;;;;;;;13.75;6.88;;;;;;;10.54;56.65;100821.84;3132452;28;20049;-65
2022/10/29 03:04:48;;;;;;;14.85;6.60;;;;;;;10.57;56.47;100819.16;3132441;28;20248;-64
2022/10/29 03:06:21;;;;;;;13.65;6.68;;;;;;;10.59;56.21;100829.50;3132275;28;20063;-65
2022/10/29 03:07:53;;;;;;;16.05;6.75;;;;;;;10.57;56.30;100819.16;3134954;28;20198;-64
2022/10/29 03:09:24;;;;;;;16.98;6.35;;;;;;;10.60;56.49;100826.88;3141103;28;20044;-64
2022/10/29 03:10:56;;;;;;;14.13;6.32;;;;;;;10.55;56.22;100812.28;3136300;28;20049;-64
2022/10/29 03:12:27;;;;;;;14.38;6.47;;;;;;;10.60;56.45;100820.81;3135249;28;20048;-64
2022/10/29 03:13:58;;;;;;;14.70;6.38;;;;;;;10.56;56.30;100811.38;3140840;28;20446;-64
2022/10/29 03:15:30;;;;;;;20.08;7.13;;;;;;;10.58;56.41;100807.81;3144673;28;20045;-64
2022/10/29 03:17:02;;;;;;;12.05;6.20;;;;;;;10.61;56.45;100817.31;3139482;28;20135;-64
2022/10/29 03:18:33;;;;;;;15.63;6.50;;;;;;;10.59;56.28;100813.88;3133142;28;20061;-64
2022/10/29 03:20:06;;;;;;;15.13;6.13;;;;;;;10.58;56.26;100815.63;3132107;28;20049;-64
2022/10/29 03:21:39;;;;;;;12.93;6.43;;;;;;;10.53;56.42;100816.66;3132536;28;20459;-64
2022/10/29 03:23:10;;;;;;;15.02;6.22;;;;;;;10.49;56.74;100813.28;3132488;28;20041;-64
2022/10/29 03:24:42;;;;;;;15.00;6.97;;;;;;;10.45;56.52;100819.50;3132427;28;20833;-64
2022/10/29 03:26:14;;;;;;;12.85;6.15;;;;;;;10.40;56.82;100813.56;3132253;28;20049;-65
2022/10/29 03:27:47;;;;;;;15.32;7.18;;;;;;;10.34;57.09;100811.13;3132315;28;20057;-66
2022/10/29 03:29:18;;;;;;;15.10;6.50;;;;;;;10.29;57.13;100810.41;3132224;28;20053;-64
2022/10/29 03:30:50;;;;;;;13.98;6.43;;;;;;;10.27;57.01;100809.63;3132110;28;20053;-64
2022/10/29 03:32:22;;;;;;;12.32;6.60;;;;;;;10.28;56.92;100817.38;3132128;28;20398;-64
2022/10/29 03:33:53;;;;;;;12.48;6.28;;;;;;;10.27;56.97;100809.63;3132491;28;20052;-64
2022/10/29 03:35:25;;;;;;;11.02;5.75;;;;;;;10.27;57.02;100810.47;3131962;28;20060;-64
2022/10/29 03:36:58;;;;;;;10.52;6.13;;;;;;;10.23;57.07;100801.84;3136641;28;20102;-65
2022/10/29 03:38:29;;;;;;;13.05;6.22;;;;;;;10.25;57.09;100812.22;3140777;28;20049;-65
2022/10/29 03:40:01;;;;;;;16.42;6.35;;;;;;;10.25;57.10;100804.41;3138472;28;20106;-65
2022/10/29 03:41:33;;;;;;;13.82;6.38;;;;;;;10.24;57.16;100805.31;3132372;28;20144;-64
2022/10/29 03:43:04;;;;;;;11.80;6.22;;;;;;;10.25;57.09;100797.44;3132126;28;20386;-64
2022/10/29 03:44:36;;;;;;;11.05;6.25;;;;;;;10.28;56.92;100803.50;3140346;28;20068;-65
2022/10/29 03:46:07;;;;;;;11.18;5.47;;;;;;;10.31;56.89;100804.25;3132172;28;20057;-64
2022/10/29 03:47:39;;;;;;;10.18;5.30;;;;;;;10.28;57.05;100796.53;3135106;28;20548;-65
2022/10/29 03:49:11;;;;;;;13.73;6.05;;;;;;;10.32;56.99;100803.34;3132954;28;20510;-64
2022/10/29 03:50:43;;;;;;;15.93;5.90;;;;;;;10.32;57.12;100802.50;3132263;28;20134;-64
2022/10/29 03:52:16;;;;;;;12.57;5.55;;;;;;;10.33;57.03;100806.84;3131712;28;20045;-64
2022/10/29 03:53:48;;;;;;;12.30;5.70;;;;;;;10.33;56.82;100799.88;3135936;28;20041;-64
2022/10/29 03:55:20;;;;;;;16.45;6.05;;;;;;;10.32;57.01;100790.34;3138139;28;20045;-64
2022/10/29 03:56:51;;;;;;;10.40;5.43;;;;;;;10.34;56.86;100793.75;3132318;28;20120;-64
2022/10/29 03:58:23;;;;;;;12.52;5.65;;;;;;;10.32;56.88;100794.69;3132026;28;20114;-64
2022/10/29 03:59:54;;;;;;;12.75;5.97;;;;;;;10.32;57.22;100795.53;3132048;28;20053;-65
2022/10/29 04:01:26;;;;;;;12.63;5.78;;;;;;;10.32;57.10;100805.09;3142048;28;20048;-64
2022/10/29 04:02:57;;;;;;;13.13;5.80;;;;;;;10.29;57.14;100795.63;3132105;28;20441;-65
2022/10/29 04:04:29;;;;;;;14.10;5.72;;;;;;;10.29;57.08;100797.38;3139793;28;20106;-65
2022/10/29 04:06:03;;;;;;;15.65;6.38;;;;;;;10.29;57.16;100806.03;3136614;28;20106;-65
2022/10/29 04:07:36;;;;;;;16.70;6.35;;;;;;;10.27;56.83;100802.66;3134311;28;20056;-65
2022/10/29 04:09:07;;;;;;;13.10;6.03;;;;;;;10.24;57.17;100806.16;3141577;28;20501;-65
2022/10/29 04:10:43;;;;;;;12.57;5.32;;;;;;;10.24;57.23;100803.56;3140318;28;20053;-65
2022/10/29 04:12:15;;;;;;;13.50;6.05;;;;;;;10.25;57.05;100799.19;3134274;28;20099;-65
2022/10/29 04:13:46;;;;;;;14.20;6.05;;;;;;;10.22;56.95;100801.88;3134350;28;20051;-65
2022/10/29 04:15:17;;;;;;;12.27;5.80;;;;;;;10.24;56.92;100795.75;3146733;28;20075;-65
2022/10/29 04:16:49;;;;;;;10.10;5.30;;;;;;;10.22;57.00;100789.72;3141560;28;20048;-65
2022/10/29 04:18:21;;;;;;;10.25;4.50;;;;;;;10.22;57.05;100791.47;3136811;28;20045;-65
2022/10/29 04:19:53;;;;;;;9.68;5.47;;;;;;;10.21;57.00;100794.97;3134650;28;20067;-65
2022/10/29 04:21:25;;;;;;;12.63;5.18;;;;;;;10.22;57.26;100796.69;3134346;28;20053;-65
2022/10/29 04:22:58;;;;;;;14.95;5.20;;;;;;;10.23;57.03;100793.16;3134069;28;20052;-65
2022/10/29 04:24:30;;;;;;;16.15;6.82;;;;;;;10.22;57.32;100792.31;3134495;28;20056;-65
2022/10/29 04:26:02;;;;;;;12.20;6.13;;;;;;;10.23;57.02;100803.56;3134445;28;20045;-65
2022/10/29 04:27:34;;;;;;;13.65;5.28;;;;;;;10.20;57.15;100794.13;3134278;28;20475;-65
2022/10/29 04:29:05;;;;;;;12.20;5.53;;;;;;;10.20;57.33;100798.47;3134253;28;20053;-65
2022/10/29 04:30:37;;;;;;;13.80;5.80;;;;;;;10.20;57.34;100801.94;3134414;28;20114;-65
2022/10/29 04:32:09;;;;;;;16.25;6.05;;;;;;;10.18;57.20;100795.91;3134194;28;20463;-65
2022/10/29 04:33:40;;;;;;;12.15;6.10;;;;;;;10.16;57.35;100797.69;3142215;28;20052;-64
2022/10/29 04:35:12;;;;;;;12.25;5.22;;;;;;;10.18;57.43;100797.66;3137890;28;20080;-64
2022/10/29 04:36:44;;;;;;;18.50;5.80;;;;;;;10.16;57.53;100794.25;3134229;28;20056;-64
2022/10/29 04:38:17;;;;;;;10.98;4.70;;;;;;;10.15;57.36;100796.00;3135861;28;20049;-64
2022/10/29 04:39:49;;;;;;;9.13;5.07;;;;;;;10.13;57.40;100794.31;3141917;28;20056;-64
2022/10/29 04:41:21;;;;;;;12.48;5.53;;;;;;;10.11;57.46;100802.16;3147707;28;20068;-64
2022/10/29 04:42:52;;;;;;;10.88;4.95;;;;;;;10.12;57.53;100803.03;3134248;28;20128;-64
2022/10/29 04:44:24;;;;;;;15.18;6.18;;;;;;;10.11;57.79;100801.31;3133956;28;20068;-64
2022/10/29 04:45:56;;;;;;;13.30;5.32;;;;;;;10.05;57.71;100799.72;3134076;28;20053;-64
2022/10/29 04:47:28;;;;;;;11.82;5.57;;;;;;;10.00;58.13;100807.69;3135476;28;20059;-64
2022/10/29 04:49:01;;;;;;;13.68;5.68;;;;;;;9.94;58.21;100801.78;3136293;28;20419;-64
2022/10/29 04:50:32;;;;;;;13.82;6.32;;;;;;;9.88;58.44;100809.72;3133871;28;20053;-64
2022/10/29 04:52:05;;;;;;;10.02;5.45;;;;;;;9.84;58.48;100813.31;3133965;28;20091;-65
2022/10/29 04:53:39;;;;;;;15.55;5.30;;;;;;;9.76;58.57;100810.91;3135918;28;20469;-65
2022/10/29 04:55:10;;;;;;;15.10;5.70;;;;;;;9.73;58.84;100811.84;3141565;28;20078;-65
2022/10/29 04:56:42;;;;;;;13.68;6.40;;;;;;;9.67;59.11;100822.41;3134032;28;20063;-66
2022/10/29 04:58:16;;;;;;;15.23;5.78;;;;;;;9.64;59.08;100812.06;3133925;28;20437;-65
2022/10/29 04:59:47;;;;;;;16.42;6.32;;;;;;;9.55;59.38;100817.50;3134019;28;20052;-65
2022/10/29 05:01:19;;;;;;;12.80;5.63;;;;;;;9.49;59.80;100821.09;3143271;28;20052;-65
2022/10/29 05:02:52;;;;;;;17.20;5.90;;;;;;;9.50;59.80;100821.97;3134171;28;20049;-66
2022/10/29 05:04:24;;;;;;;9.98;4.97;;;;;;;9.44;59.80;100814.34;3133858;28;20061;-65
2022/10/29 05:05:56;;;;;;;13.05;4.80;;;;;;;9.43;59.82;100823.84;3135600;28;20500;-65
2022/10/29 05:07:28;;;;;;;15.38;5.72;;;;;;;9.42;59.84;100826.50;3133621;28;20055;-65
2022/10/29 05:09:01;;;;;;;13.40;5.43;;;;;;;9.42;59.98;100823.91;3141330;28;20483;-65
2022/10/29 05:10:34;;;;;;;;;;;;;;;9.36;59.84;100824.91;3140955;28;20053;-66
2022/10/29 05:12:07;;;;;;;11.95;6.03;;;;;;;9.34;60.02;100818.88;3134030;28;19956;-65
2022/10/29 05:13:40;;;;;;;22.65;6.75;;;;;;;9.39;59.82;100832.63;3133594;28;20048;-65
2022/10/29 05:15:11;;;;;;;12.32;5.75;;;;;;;9.43;59.71;100838.59;3144673;28;20505;-65
2022/10/29 05:16:43;;;;;;;14.45;6.32;;;;;;;9.47;59.84;100835.06;3140341;28;20063;-65
2022/10/29 05:18:14;;;;;;;13.63;7.05;;;;;;;9.50;59.95;100832.38;3137611;28;20059;-64
2022/10/29 05:19:46;;;;;;;11.52;5.97;;;;;;;9.51;59.69;100829.72;3133594;28;20543;-65
2022/10/29 05:21:18;;;;;;;17.35;6.15;;;;;;;9.59;59.72;100833.91;3133501;28;20053;-65
2022/10/29 05:22:50;;;;;;;16.42;6.90;;;;;;;9.63;59.46;100830.31;3133478;28;20068;-64
2022/10/29 05:24:23;;;;;;;22.42;6.30;;;;;;;9.66;59.57;100830.25;3133639;28;20049;-64
2022/10/29 05:25:56;;;;;;;15.60;5.80;;;;;;;9.66;59.36;100831.09;3133699;28;20049;-65
2022/10/29 05:27:27;;;;;;;13.50;6.07;;;;;;;9.73;59.51;100835.28;3133607;28;20041;-65
2022/10/29 05:28:58;;;;;;;16.88;6.30;;;;;;;9.82;59.28;100838.50;3134349;28;20141;-65
2022/10/29 05:30:30;;;;;;;20.20;6.63;;;;;;;9.82;59.49;100830.69;3133846;28;20444;-66
2022/10/29 05:32:02;;;;;;;16.30;6.75;;;;;;;9.86;59.32;100829.75;3133338;28;20166;-66
2022/10/29 05:33:34;;;;;;;16.77;7.68;;;;;;;9.99;59.37;100834.56;3133177;28;20453;-64
2022/10/29 05:35:05;;;;;;;18.10;6.65;;;;;;;10.07;59.04;100836.13;3133430;28;20052;-64
2022/10/29 05:36:37;;;;;;;15.43;6.13;;;;;;;10.07;58.92;100826.56;3136774;28;20063;-64
2022/10/29 05:38:10;;;;;;;14.50;6.55;;;;;;;10.21;59.15;100827.06;3142742;28;20075;-64
2022/10/29 05:39:42;;;;;;;12.98;5.43;;;;;;;10.44;58.88;100846.41;3141868;28;20107;-64
2022/10/29 05:41:14;;;;;;;11.35;5.00;;;;;;;10.56;58.22;100843.50;3133689;28;20053;-65
2022/10/29 05:42:45;;;;;;;13.07;5.15;;;;;;;10.70;58.32;100848.28;3133363;28;20545;-65
2022/10/29 05:44:17;;;;;;;17.25;5.80;;;;;;;10.83;58.12;100843.59;3133395;28;20056;-65
2022/10/29 05:45:48;;;;;;;14.07;6.25;;;;;;;11.02;57.75;100854.31;3133172;28;20122;-65
2022/10/29 05:47:19;;;;;;;13.10;6.03;;;;;;;11.21;57.26;100857.19;3133715;28;20052;-66
2022/10/29 05:48:51;;;;;;;13.65;5.50;;;;;;;11.43;56.63;100858.25;3136751;28;20675;-65
2022/10/29 05:50:22;;;;;;;16.98;6.38;;;;;;;11.64;56.27;100855.84;3133136;28;20048;-65
2022/10/29 05:51:54;;;;;;;16.80;6.05;;;;;;;11.84;55.72;100863.88;3133442;28;20157;-65
2022/10/29 05:53:26;;;;;;;11.40;5.80;;;;;;;12.09;55.06;100852.63;3134005;28;20041;-67
2022/10/29 05:54:59;;;;;;;15.43;5.85;;;;;;;12.28;54.70;100851.09;3142454;28;20049;-65
2022/10/29 05:56:31;;;;;;;11.88;6.18;;;;;;;12.38;53.81;100855.06;3133028;28;20415;-66
2022/10/29 05:58:06;;;;;;;10.77;5.80;;;;;;;12.55;53.39;100846.63;3135467;28;20060;-66
2022/10/29 05:59:36;;;;;;;13.27;5.40;;;;;;;12.64;53.13;100837.59;3145536;28;20118;-66
2022/10/29 06:01:10;;;;;;;14.52;5.50;;;;;;;12.81;52.66;100843.06;3141339;28;20135;-66
2022/10/29 06:02:43;;;;;;;12.18;5.65;;;;;;;13.05;52.49;100851.72;3134670;28;20135;-66
2022/10/29 06:04:15;;;;;;;21.13;5.68;;;;;;;13.21;51.99;100847.56;3133307;28;20144;-66
2022/10/29 06:05:48;;;;;;;12.80;5.65;;;;;;;13.38;51.81;100856.56;3133362;28;20106;-65
2022/10/29 06:07:19;;;;;;;14.00;6.50;;;;;;;13.71;51.21;100861.34;3132873;28;20045;-65
2022/10/29 06:08:51;;;;;;;12.73;5.80;;;;;;;14.11;49.99;100856.16;3139598;28;20097;-66
2022/10/29 06:10:25;;;;;;;10.98;5.70;;;;;;;14.65;49.08;100860.81;3141536;28;20049;-65
2022/10/29 06:11:57;;;;;;;8.65;5.28;;;;;;;15.24;47.97;100859.81;3133229;28;20110;-66
2022/10/29 06:13:30;;;;;;;12.73;6.28;;;;;;;15.86;46.70;100868.22;3132974;28;20098;-65
2022/10/29 06:15:01;;;;;;;9.00;5.33;;;;;;;16.49;45.26;100868.44;3143427;28;20109;-65
2022/10/29 06:16:32;;;;;;;11.38;5.53;;;;;;;17.11;44.25;100859.91;3139724;28;20611;-65
2022/10/29 06:18:04;;;;;;;14.50;5.90;;;;;;;17.72;42.92;100865.19;3137676;28;20095;-65
2022/10/29 06:19:36;;;;;;;10.95;5.25;;;;;;;18.23;41.62;100851.66;3133099;28;20060;-65
2022/10/29 06:21:08;;;;;;;17.77;6.20;;;;;;;18.82;40.92;100857.72;3134074;28;20057;-66
2022/10/29 06:22:40;;;;;;;13.25;5.65;;;;;;;19.51;40.04;100863.00;3141166;28;20147;-66
2022/10/29 06:24:12;;;;;;;11.00;5.40;;;;;;;20.11;38.98;100859.03;3133184;28;20053;-65
2022/10/29 06:25:45;;;;;;;13.30;5.25;;;;;;;20.66;38.19;100847.31;3137297;28;20059;-65
2022/10/29 06:27:16;;;;;;;14.60;5.25;;;;;;;21.06;37.11;100850.59;3133096;28;20561;-65
2022/10/29 06:28:48;;;;;;;13.40;5.97;;;;;;;21.24;36.51;100843.13;3132863;28;20135;-65
2022/10/29 06:30:19;;;;;;;11.98;5.35;;;;;;;21.77;35.69;100854.22;3132829;28;20056;-65
2022/10/29 06:31:51;;;;;;;13.98;5.53;;;;;;;22.14;35.50;100847.91;3132944;28;20053;-66
2022/10/29 06:33:23;;;;;;;13.75;5.93;;;;;;;22.42;34.74;100833.34;3144974;28;20112;-66
2022/10/29 06:34:54;;;;;;;16.60;6.15;;;;;;;22.89;34.29;100842.88;3145220;28;20041;-66
2022/10/29 06:36:25;;;;;;;9.02;5.50;;;;;;;23.35;33.46;100840.97;3132717;28;20075;-65
2022/10/29 06:37:57;;;;;;;10.57;5.30;;;;;;;23.88;32.88;100843.66;3132577;28;20056;-66
2022/10/29 06:39:29;;;;;;;11.45;5.05;;;;;;;24.23;32.00;100840.66;3142948;28;20541;-66
2022/10/29 06:41:02;;;;;;;11.50;5.88;;;;;;;24.56;31.60;100849.38;3132618;28;20068;-65
2022/10/29 06:42:34;;;;;;;17.98;5.70;;;;;;;24.69;30.76;100841.97;3132830;28;20053;-65
2022/10/29 06:44:06;;;;;;;13.75;5.53;;;;;;;24.63;30.52;100850.50;3132843;28;20091;-67
2022/10/29 06:45:38;;;;;;;15.43;5.15;;;;;;;24.67;30.43;100840.47;3132728;28;20044;-65
2022/10/29 06:47:10;;;;;;;15.95;6.20;;;;;;;24.88;30.35;100846.53;3132768;28;20044;-65
2022/10/29 06:48:41;;;;;;;13.15;5.40;;;;;;;24.95;29.60;100853.00;3136573;28;20434;-64
2022/10/29 06:50:14;;;;;;;9.10;4.97;;;;;;;24.82;29.74;100849.75;3132640;28;20049;-65
2022/10/29 06:51:45;;;;;;;10.73;4.95;;;;;;;24.86;29.43;100850.31;3132773;28;20127;-65
2022/10/29 06:53:17;;;;;;;12.45;5.07;;;;;;;25.08;29.12;100844.78;3132378;28;20056;-65
2022/10/29 06:54:48;;;;;;;17.17;5.28;;;;;;;25.32;28.99;100851.53;3142916;28;20048;-65
2022/10/29 06:56:22;;;;;;;11.85;5.22;;;;;;;25.76;28.83;100854.63;3132800;28;20114;-65
2022/10/29 06:57:58;;;;;;;12.32;4.80;;;;;;;26.27;28.08;100848.09;3139346;28;20044;-65
2022/10/29 06:59:30;;;;;;;11.05;4.55;;;;;;;26.85;27.81;100847.03;3132730;28;20087;-65
2022/10/29 07:01:02;;;;;;;8.85;4.50;;;;;;;27.40;27.02;100847.81;3139444;28;20048;-64
2022/10/29 07:02:34;;;;;;;7.90;4.50;;;;;;;27.90;26.22;100849.94;3135194;28;20060;-66
2022/10/29 07:04:06;;;;;;;7.85;4.18;;;;;;;28.36;25.92;100852.38;3132478;28;20041;-65
2022/10/29 07:05:37;;;;;;;15.32;5.43;;;;;;;28.82;25.37;100844.91;3132430;28;20049;-66
2022/10/29 07:07:09;;;;;;;8.63;4.70;;;;;;;29.10;24.77;100840.16;3132309;28;20169;-66
2022/10/29 07:08:41;;;;;;;10.93;4.50;;;;;;;29.35;24.48;100843.72;3137768;28;20098;-65
2022/10/29 07:10:12;;;;;;;8.82;4.38;;;;;;;29.73;24.35;100853.97;3142227;28;20056;-65
2022/10/29 07:11:45;;;;;;;10.00;4.60;;;;;;;30.08;23.75;100840.19;3132397;28;20063;-65